createdAt,value
2023-04-14T00:00:37.140Z,1.53
2023-04-14T00:03:04.309Z,1.51
2023-04-14T00:05:32.168Z,1.57
2023-04-14T00:07:59.013Z,1.50
2023-04-14T00:10:26.394Z,1.49
2023-04-14T00:12:53.878Z,1.55
2023-04-14T00:15:20.912Z,1.51
2023-04-14T00:17:47.838Z,1.44
2023-04-14T00:20:14.551Z,1.51
2023-04-14T00:22:41.290Z,1.46
2023-04-14T00:25:08.379Z,1.54
2023-04-14T00:27:35.175Z,1.49
2023-04-14T00:30:01.846Z,1.69
2023-04-14T00:32:28.859Z,1.65
2023-04-14T00:34:57.087Z,1.53
2023-04-14T00:37:24.474Z,1.62
2023-04-14T00:39:51.233Z,1.50
2023-04-14T00:42:18.066Z,1.56
2023-04-14T00:44:44.838Z,1.47
2023-04-14T00:47:11.653Z,1.46
2023-04-14T00:49:38.329Z,1.54
2023-04-14T00:52:05.802Z,1.48
2023-04-14T00:54:32.963Z,1.38
2023-04-14T00:56:59.901Z,1.32
2023-04-14T00:59:28.895Z,1.33
2023-04-14T01:01:57.104Z,1.46
2023-04-14T01:04:24.343Z,1.40
2023-04-14T01:06:54.713Z,1.44
2023-04-14T01:09:21.582Z,1.55
2023-04-14T01:12:26.428Z,1.66
2023-04-14T01:14:53.098Z,1.85
2023-04-14T01:17:35.110Z,1.91
2023-04-14T01:20:21.059Z,1.72
2023-04-14T01:23:16.477Z,1.66
2023-04-14T01:26:01.909Z,1.67
2023-04-14T01:28:52.054Z,1.63
2023-04-14T01:31:26.110Z,1.51
2023-04-14T01:34:22.858Z,1.38
2023-04-14T01:37:14.123Z,1.21
2023-04-14T01:39:52.822Z,1.19
2023-04-14T01:42:23.670Z,1.17
2023-04-14T01:44:56.742Z,1.22
2023-04-14T01:47:25.146Z,1.20
2023-04-14T01:49:54.069Z,1.10
2023-04-14T01:52:21.368Z,1.16
2023-04-14T01:54:49.837Z,1.13
2023-04-14T01:57:20.369Z,1.20
2023-04-14T01:59:48.300Z,1.06
2023-04-14T02:02:15.832Z,1.15
2023-04-14T02:04:42.997Z,1.14
2023-04-14T02:07:11.021Z,1.12
2023-04-14T02:09:38.354Z,1.13
2023-04-14T02:12:06.406Z,1.09
2023-04-14T02:14:34.760Z,1.20
2023-04-14T02:17:02.907Z,1.27
2023-04-14T02:19:30.297Z,1.28
2023-04-14T02:21:57.321Z,1.25
2023-04-14T02:24:24.104Z,1.28
2023-04-14T02:26:58.802Z,1.25
2023-04-14T02:29:26.506Z,1.26
2023-04-14T02:31:58.462Z,1.24
2023-04-14T02:34:29.756Z,1.23
2023-04-14T02:36:58.589Z,1.25
2023-04-14T02:39:31.960Z,1.25
2023-04-14T02:42:03.433Z,1.27
2023-04-14T02:44:30.980Z,1.32
2023-04-14T02:47:07.751Z,1.28
2023-04-14T02:49:37.001Z,1.31
2023-04-14T02:52:06.760Z,1.34
2023-04-14T02:54:39.053Z,1.31
2023-04-14T02:57:06.226Z,1.47
2023-04-14T02:59:32.996Z,1.55
2023-04-14T03:02:02.510Z,1.55
2023-04-14T03:04:32.609Z,1.57
2023-04-14T03:07:01.147Z,1.46
2023-04-14T03:09:30.139Z,1.42
2023-04-14T03:11:57.744Z,1.35
2023-04-14T03:14:25.148Z,1.36
2023-04-14T03:16:53.596Z,1.26
2023-04-14T03:19:24.093Z,1.14
2023-04-14T03:21:51.701Z,1.18
2023-04-14T03:24:24.917Z,1.11
2023-04-14T03:26:57.601Z,1.06
2023-04-14T03:29:28.063Z,0.86
2023-04-14T03:32:00.599Z,0.76
2023-04-14T03:34:29.832Z,0.57
2023-04-14T03:36:57.627Z,0.48
2023-04-14T03:39:31.923Z,0.46
2023-04-14T03:41:59.746Z,0.32
2023-04-14T03:44:27.822Z,0.25
2023-04-14T03:46:55.048Z,0.09
2023-04-14T03:49:23.869Z,0.07
2023-04-14T03:51:53.761Z,0.10
2023-04-14T03:54:24.740Z,0.09
2023-04-14T03:56:54.455Z,0.09
2023-04-14T03:59:21.985Z,0.19
2023-04-14T04:01:49.320Z,0.21
2023-04-14T04:04:16.781Z,0.16
2023-04-14T04:06:43.801Z,0.14
2023-04-14T04:09:14.642Z,0.11
2023-04-14T04:11:43.672Z,0.02
2023-04-14T04:14:11.060Z,-0.08
2023-04-14T04:16:39.089Z,-0.14
2023-04-14T04:19:06.446Z,-0.13
2023-04-14T04:21:34.481Z,-0.17
2023-04-14T04:24:02.477Z,-0.20
2023-04-14T04:26:33.083Z,-0.26
2023-04-14T04:29:01.081Z,-0.38
2023-04-14T04:31:28.539Z,-0.47
2023-04-14T04:33:57.234Z,-0.49
2023-04-14T04:36:28.613Z,-0.53
2023-04-14T04:38:55.603Z,-0.44
2023-04-14T04:41:23.673Z,-0.48
2023-04-14T04:43:50.511Z,-0.65
2023-04-14T04:46:38.703Z,-0.50
2023-04-14T04:49:05.714Z,-0.51
2023-04-14T04:51:32.615Z,-0.54
2023-04-14T04:53:59.333Z,-0.50
2023-04-14T04:56:27.535Z,-0.35
2023-04-14T04:58:54.301Z,-0.29
2023-04-14T05:01:21.098Z,-0.36
2023-04-14T05:03:47.878Z,-0.42
2023-04-14T05:06:14.641Z,-0.41
2023-04-14T05:08:41.394Z,-0.32
2023-04-14T05:11:08.385Z,-0.37
2023-04-14T05:13:35.075Z,-0.38
2023-04-14T05:16:09.708Z,-0.35
2023-04-14T05:18:36.897Z,-0.39
2023-04-14T05:21:04.202Z,-0.26
2023-04-14T05:23:33.248Z,-0.34
2023-04-14T05:26:16.388Z,-0.25
2023-04-14T05:28:47.745Z,-0.20
2023-04-14T05:31:14.562Z,-0.05
2023-04-14T05:33:41.308Z,0.04
2023-04-14T05:36:08.075Z,0.09
2023-04-14T05:38:40.088Z,0.16
2023-04-14T05:41:07.802Z,0.29
2023-04-14T05:43:34.720Z,0.53
2023-04-14T05:46:01.817Z,0.59
2023-04-14T05:48:30.957Z,0.80
2023-04-14T05:50:58.255Z,0.87
2023-04-14T05:53:25.424Z,0.99
2023-04-14T05:55:52.722Z,1.13
2023-04-14T05:58:20.113Z,1.24
2023-04-14T06:00:47.079Z,1.41
2023-04-14T06:03:14.042Z,1.53
2023-04-14T06:05:41.038Z,1.78
2023-04-14T06:08:07.789Z,1.96
2023-04-14T06:10:35.859Z,2.17
2023-04-14T06:13:02.615Z,2.45
2023-04-14T06:15:29.969Z,2.57
2023-04-14T06:17:56.900Z,2.86
2023-04-14T06:20:23.824Z,3.16
2023-04-14T06:22:50.621Z,3.23
2023-04-14T06:25:17.551Z,3.38
2023-04-14T06:27:44.293Z,3.56
2023-04-14T06:30:11.262Z,3.76
2023-04-14T06:32:38.157Z,4.00
2023-04-14T06:35:05.203Z,4.24
2023-04-14T06:37:32.565Z,4.39
2023-04-14T06:39:59.390Z,4.62
2023-04-14T06:42:26.349Z,4.79
2023-04-14T06:44:53.119Z,4.84
2023-04-14T06:47:21.028Z,5.04
2023-04-14T06:49:48.149Z,5.21
2023-04-14T06:52:14.889Z,5.31
2023-04-14T06:54:42.455Z,5.36
2023-04-14T06:57:09.506Z,5.41
2023-04-14T06:59:36.956Z,5.56
2023-04-14T07:02:03.816Z,5.67
2023-04-14T07:04:30.757Z,5.87
2023-04-14T07:07:03.348Z,6.07
2023-04-14T07:09:30.238Z,6.19
2023-04-14T07:11:57.837Z,6.30
2023-04-14T07:14:25.141Z,6.44
2023-04-14T07:16:52.952Z,6.62
2023-04-14T07:19:20.112Z,6.78
2023-04-14T07:21:47.317Z,6.79
2023-04-14T07:24:15.523Z,6.82
2023-04-14T07:26:44.530Z,7.04
2023-04-14T07:29:11.739Z,7.23
2023-04-14T07:31:39.749Z,7.53
2023-04-14T07:34:06.685Z,7.73
2023-04-14T07:36:33.564Z,7.94
2023-04-14T07:39:00.441Z,8.17
2023-04-14T07:41:28.095Z,8.25
2023-04-14T07:43:59.581Z,8.43
2023-04-14T07:46:26.573Z,8.64
2023-04-14T07:48:53.559Z,8.84
2023-04-14T07:51:20.815Z,8.96
2023-04-14T07:53:47.654Z,8.84
2023-04-14T07:56:15.199Z,8.73
2023-04-14T07:58:42.161Z,8.44
2023-04-14T08:01:09.236Z,8.52
2023-04-14T08:03:39.343Z,8.76
2023-04-14T08:06:07.788Z,8.75
2023-04-14T08:08:35.615Z,8.98
2023-04-14T08:11:02.495Z,9.27
2023-04-14T08:13:29.522Z,9.37
2023-04-14T08:15:56.463Z,9.31
2023-04-14T08:18:23.536Z,9.19
2023-04-14T08:20:50.604Z,9.31
2023-04-14T08:23:17.578Z,9.56
2023-04-14T08:25:44.846Z,9.81
2023-04-14T08:28:12.480Z,9.84
2023-04-14T08:30:39.318Z,10.13
2023-04-14T08:33:09.022Z,10.24
2023-04-14T08:35:42.010Z,9.98
2023-04-14T08:38:09.998Z,10.10
2023-04-14T08:40:41.343Z,10.28
2023-04-14T08:43:08.297Z,10.40
2023-04-14T08:45:36.399Z,10.40
2023-04-14T08:48:04.425Z,10.39
2023-04-14T08:50:38.565Z,10.38
2023-04-14T08:53:09.495Z,10.19
2023-04-14T08:55:43.427Z,10.28
2023-04-14T08:58:12.939Z,10.74
2023-04-14T09:00:40.478Z,10.96
2023-04-14T09:03:09.303Z,11.40
2023-04-14T09:05:36.624Z,11.41
2023-04-14T09:08:04.521Z,11.89
2023-04-14T09:10:32.017Z,11.98
2023-04-14T09:12:59.570Z,11.30
2023-04-14T09:15:30.151Z,11.29
2023-04-14T09:17:57.781Z,11.47
2023-04-14T09:20:38.299Z,11.70
2023-04-14T09:23:08.445Z,11.98
2023-04-14T09:25:36.626Z,12.03
2023-04-14T09:28:03.669Z,11.97
2023-04-14T09:30:31.808Z,12.19
2023-04-14T09:32:58.875Z,12.46
2023-04-14T09:35:45.489Z,12.79
2023-04-14T09:38:12.398Z,13.36
2023-04-14T09:40:42.704Z,14.33
2023-04-14T09:43:13.210Z,14.94
2023-04-14T09:45:46.985Z,15.83
2023-04-14T09:48:14.051Z,16.88
2023-04-14T09:51:00.766Z,18.07
2023-04-14T09:53:32.083Z,18.55
2023-04-14T09:56:07.136Z,19.07
2023-04-14T09:58:39.311Z,18.87
2023-04-14T10:01:15.511Z,18.29
2023-04-14T10:03:43.735Z,18.54
2023-04-14T10:06:20.176Z,18.90
2023-04-14T10:08:50.580Z,18.04
2023-04-14T10:11:27.861Z,18.62
2023-04-14T10:13:59.045Z,17.46
2023-04-14T10:16:32.552Z,16.81
2023-04-14T10:19:00.654Z,16.07
2023-04-14T10:21:30.666Z,15.56
2023-04-14T10:23:58.352Z,16.15
2023-04-14T10:26:26.855Z,17.62
2023-04-14T10:28:55.673Z,18.37
2023-04-14T10:31:45.808Z,18.33
2023-04-14T10:34:13.982Z,17.30
2023-04-14T10:36:41.524Z,16.52
2023-04-14T10:39:11.045Z,14.89
2023-04-14T10:41:44.351Z,15.43
2023-04-14T10:44:30.031Z,18.03
2023-04-14T10:46:58.157Z,20.51
2023-04-14T10:49:35.146Z,21.37
2023-04-14T10:52:04.017Z,22.35
2023-04-14T10:54:51.213Z,22.11
2023-04-14T10:57:20.046Z,22.35
2023-04-14T10:59:48.095Z,23.26
2023-04-14T11:02:28.884Z,24.62
2023-04-14T11:05:11.964Z,23.54
2023-04-14T11:07:45.464Z,21.97
2023-04-14T11:10:21.628Z,23.05
2023-04-14T11:12:59.767Z,24.14
2023-04-14T11:15:43.928Z,25.03
2023-04-14T11:18:34.700Z,26.33
2023-04-14T11:21:06.871Z,27.78
2023-04-14T11:23:35.399Z,26.33
2023-04-14T11:26:06.062Z,28.32
2023-04-14T11:28:37.095Z,29.67
2023-04-14T11:31:06.204Z,29.35
2023-04-14T11:33:42.654Z,29.46
2023-04-14T11:36:11.314Z,29.80
2023-04-14T11:38:43.209Z,29.41
2023-04-14T11:41:10.534Z,28.69
2023-04-14T11:43:38.647Z,28.72
2023-04-14T11:46:06.148Z,27.39
2023-04-14T11:48:33.128Z,28.46
2023-04-14T11:51:04.012Z,30.72
2023-04-14T11:53:31.348Z,32.75
2023-04-14T11:55:58.360Z,32.05
2023-04-14T11:58:29.603Z,33.05
2023-04-14T12:00:59.907Z,33.00
2023-04-14T12:03:34.843Z,31.98
2023-04-14T12:06:03.705Z,31.17
2023-04-14T12:08:34.337Z,31.88
2023-04-14T12:11:14.637Z,29.02
2023-04-14T12:13:42.720Z,30.04
2023-04-14T12:16:10.800Z,28.51
2023-04-14T12:18:37.807Z,24.88
2023-04-14T12:21:07.340Z,22.31
2023-04-14T12:23:42.228Z,20.61
2023-04-14T12:26:12.465Z,19.56
2023-04-14T12:28:42.264Z,19.36
2023-04-14T12:31:10.151Z,18.92
2023-04-14T12:33:37.568Z,18.53
2023-04-14T12:36:11.886Z,18.96
2023-04-14T12:38:39.970Z,18.74
2023-04-14T12:41:06.898Z,18.19
2023-04-14T12:43:35.828Z,17.70
2023-04-14T12:46:04.061Z,17.40
2023-04-14T12:48:48.719Z,16.91
2023-04-14T12:51:17.289Z,16.55
2023-04-14T12:53:45.266Z,16.23
2023-04-14T12:56:13.429Z,15.72
2023-04-14T12:58:46.924Z,15.23
2023-04-14T13:01:15.459Z,15.74
2023-04-14T13:03:51.976Z,19.66
2023-04-14T13:06:21.194Z,21.06
2023-04-14T13:08:52.708Z,20.08
2023-04-14T13:11:21.372Z,19.08
2023-04-14T13:13:48.432Z,18.04
2023-04-14T13:16:17.737Z,16.80
2023-04-14T13:18:47.411Z,16.58
2023-04-14T13:21:14.352Z,16.29
2023-04-14T13:23:41.645Z,16.15
2023-04-14T13:26:08.538Z,15.83
2023-04-14T13:28:36.782Z,15.79
2023-04-14T13:31:03.765Z,15.63
2023-04-14T13:33:33.213Z,15.48
2023-04-14T13:36:02.506Z,15.72
2023-04-14T13:38:29.820Z,15.60
2023-04-14T13:40:57.056Z,15.61
2023-04-14T13:43:24.922Z,15.52
2023-04-14T13:45:52.309Z,15.49
2023-04-14T13:48:19.368Z,15.40
2023-04-14T13:50:46.360Z,14.65
2023-04-14T13:53:13.137Z,14.51
2023-04-14T13:55:42.739Z,14.42
2023-04-14T13:58:09.870Z,14.25
2023-04-14T14:00:39.321Z,14.24
2023-04-14T14:03:06.690Z,14.04
2023-04-14T14:05:33.784Z,13.86
2023-04-14T14:08:01.018Z,13.85
2023-04-14T14:10:27.977Z,13.91
2023-04-14T14:12:54.855Z,14.08
2023-04-14T14:15:21.956Z,13.97
2023-04-14T14:17:48.914Z,13.72
2023-04-14T14:20:18.624Z,13.77
2023-04-14T14:22:45.568Z,13.54
2023-04-14T14:25:20.444Z,13.39
2023-04-14T14:27:48.789Z,13.35
2023-04-14T14:30:16.107Z,13.42
2023-04-14T14:32:43.048Z,13.62
2023-04-14T14:35:10.189Z,13.46
2023-04-14T14:37:37.297Z,13.48
2023-04-14T14:40:04.901Z,13.44
2023-04-14T14:42:31.893Z,13.43
2023-04-14T14:45:02.475Z,13.58
2023-04-14T14:47:29.849Z,13.70
2023-04-14T14:50:03.499Z,13.59
2023-04-14T14:52:34.089Z,13.47
2023-04-14T14:55:04.450Z,13.71
2023-04-14T14:57:31.699Z,13.79
2023-04-14T14:59:58.868Z,13.82
2023-04-14T15:02:26.486Z,13.80
2023-04-14T15:04:56.734Z,13.57
2023-04-14T15:07:24.144Z,13.41
2023-04-14T15:09:51.409Z,13.34
2023-04-14T15:12:18.612Z,13.27
2023-04-14T15:14:48.171Z,13.36
2023-04-14T15:17:15.141Z,13.29
2023-04-14T15:19:43.091Z,13.24
2023-04-14T15:22:11.937Z,13.29
2023-04-14T15:24:39.193Z,13.37
2023-04-14T15:27:07.364Z,13.43
2023-04-14T15:29:37.057Z,13.35
2023-04-14T15:32:07.308Z,13.27
2023-04-14T15:34:34.534Z,13.07
2023-04-14T15:37:01.999Z,12.99
2023-04-14T15:39:29.394Z,13.15
2023-04-14T15:41:57.254Z,13.61
2023-04-14T15:44:26.548Z,14.43
2023-04-14T15:46:53.947Z,15.80
2023-04-14T15:49:23.270Z,17.30
2023-04-14T15:51:50.844Z,18.62
2023-04-14T15:54:21.261Z,19.76
2023-04-14T15:56:48.615Z,20.62
2023-04-14T15:59:17.596Z,21.17
2023-04-14T16:01:45.162Z,21.44
2023-04-14T16:04:15.115Z,20.47
2023-04-14T16:06:46.140Z,19.04
2023-04-14T16:09:14.570Z,17.68
2023-04-14T16:11:44.357Z,16.63
2023-04-14T16:14:11.452Z,15.60
2023-04-14T16:16:43.418Z,14.86
2023-04-14T16:19:10.728Z,13.96
2023-04-14T16:21:37.646Z,13.63
2023-04-14T16:24:04.783Z,13.66
2023-04-14T16:26:31.685Z,13.56
2023-04-14T16:28:58.613Z,13.32
2023-04-14T16:31:26.017Z,13.27
2023-04-14T16:33:53.124Z,13.08
2023-04-14T16:36:23.179Z,12.92
2023-04-14T16:38:51.182Z,12.88
2023-04-14T16:41:18.164Z,12.61
2023-04-14T16:43:45.296Z,12.41
2023-04-14T16:46:12.414Z,12.23
2023-04-14T16:48:39.628Z,12.02
2023-04-14T16:51:08.724Z,12.02
2023-04-14T16:53:38.342Z,11.80
2023-04-14T16:56:09.859Z,11.63
2023-04-14T16:58:38.097Z,11.44
2023-04-14T17:01:06.611Z,11.32
2023-04-14T17:03:34.406Z,11.18
2023-04-14T17:06:01.698Z,11.07
2023-04-14T17:08:28.889Z,11.02
2023-04-14T17:10:55.871Z,10.88
2023-04-14T17:13:23.017Z,10.70
2023-04-14T17:15:58.953Z,10.68
2023-04-14T17:18:34.297Z,10.65
2023-04-14T17:21:01.319Z,10.62
2023-04-14T17:23:31.239Z,10.60
2023-04-14T17:26:00.241Z,10.46
2023-04-14T17:28:27.785Z,10.40
2023-04-14T17:30:55.916Z,10.24
2023-04-14T17:33:27.576Z,10.20
2023-04-14T17:35:55.471Z,10.09
2023-04-14T17:38:23.106Z,10.05
2023-04-14T17:40:54.086Z,9.97
2023-04-14T17:43:22.160Z,9.91
2023-04-14T17:45:50.739Z,9.82
2023-04-14T17:48:21.561Z,9.61
2023-04-14T17:50:49.025Z,9.60
2023-04-14T17:53:16.648Z,9.37
2023-04-14T17:55:45.293Z,9.22
2023-04-14T17:58:12.588Z,8.92
2023-04-14T18:00:44.369Z,8.88
2023-04-14T18:03:12.466Z,8.57
2023-04-14T18:05:46.370Z,8.38
2023-04-14T18:08:16.963Z,8.36
2023-04-14T18:10:45.979Z,8.11
2023-04-14T18:13:16.541Z,7.94
2023-04-14T18:15:45.714Z,7.87
2023-04-14T18:18:12.814Z,7.75
2023-04-14T18:20:45.746Z,7.59
2023-04-14T18:23:16.683Z,7.52
2023-04-14T18:28:23.925Z,7.28
2023-04-14T18:30:58.348Z,7.13
2023-04-14T18:33:27.969Z,7.02
2023-04-14T18:35:58.736Z,6.91
2023-04-14T18:38:28.267Z,6.84
2023-04-14T18:41:03.851Z,6.76
2023-04-14T18:43:34.711Z,6.65
2023-04-14T18:46:03.502Z,6.65
2023-04-14T18:51:14.553Z,6.27
2023-04-14T18:56:28.240Z,6.15
2023-04-14T19:17:58.647Z,5.52
2023-04-14T19:45:02.315Z,4.67
2023-04-14T19:58:27.174Z,4.39
2023-04-14T20:00:59.918Z,4.35
2023-04-14T20:36:12.571Z,3.25
2023-04-14T20:46:59.310Z,2.93
2023-04-14T20:52:10.817Z,2.70
2023-04-14T20:54:47.263Z,2.57
2023-04-14T21:35:23.020Z,2.39
